Airfield :
LOGIN :

Register | Disclaimer

   EN    FR    IT 

 










Legend :    VFR   Marginal VFR   IFR   Intensive IFR   Very Intensive IFR
Visi :
Ceiling :
>= 8 km
>= 3000ft
5 to 8 km
1000 to 3000 ft
1500m to 5 km
500 to 1000 ft
800 to 1500m
200 to 500 ft
< 800m
< 200 ft
Symbols :   Thunderstorms  Fog  Heavy snow  Heavy precipitations  Wind > 20 kt
SIGMETs :     Misc.  Thunderstorms  Icing  Turbulence  Mountain Waves  Volcanic Ashes






- Airport Elevation : 200 ft


EBBL - Klein Brogel AB

CURRENT METAR :
  • 282225Z AUTO 22012KT 9999 FEW053/// OVC072/// 09/08 Q1007 BLU

EXPIRED METARs :
  • 282155Z AUTO 22011KT 9999 OVC061/// 09/08 Q1007 BLU
  • 282125Z AUTO 22014KT 9999 -RA OVC037/// 09/08 Q1006 BLU
  • 282055Z AUTO 21011KT 9999 BKN045/// 09/08 Q1006 BLU
  • 282025Z AUTO 21009KT 9999 BKN050/// 09/08 Q1007 BLU
  • 282014Z AUTO 22010KT 9999 BKN051/// 09/08 Q1006 BLU
  • 281955Z AUTO 23010KT 9999 OVC024/// 09/08 Q1006 WHT

TAF TAF EBBL
Valid from the 28 at 19:00 until the 29 at 07:00 UTC


281541Z 2819/2907 22015G25KT 9999 BKN020 BKN040
TEMPO 2819/2824 22017G30KT 6000 -SHRA BKN018 BKN030
TEMPO 2819/2822 22020G35KT 3000 SHRA BKN015TCU
BECMG 2900/2902 23010G22KT SCT012 BKN015



MET'MAP, your aeronautical weather chart ! - Copyright ORBIFLY December 2007 - Disclaimer

ORBIFLY MET'MAP TEAM :

Programming & Development : Alexandra Zaïnal
Concept & original design : Baudouin d'Aumeries
Assistance for programming : Marc-Olivier Méhu
Technical & hardware support : Manuel Goepfert

Contact : metmap@orbifly.com




SOURCES & CREDITS :

   NOAA